Time;durP1;ratioP1;P1;durP2;ratioP2;P2;SDS_P1;SDS_P2;PMS_P1;PMS_P2;Temp;Humidity;BMP_temperature;BMP_pressure;BME280_temperature;BME280_humidity;BME280_pressure;Samples;Min_cycle;Max_cycle;Signal;HPM_P1;HPM_P2
2022/09/16 00:02:14;;;;;;;3.03;2.42;;;;;;;12.21;100.00;95342.81;5008571;28;24440;-76
2022/09/16 00:04:41;;;;;;;3.28;2.38;;;;;;;12.13;100.00;95342.56;5001270;28;24533;-76
2022/09/16 00:07:07;;;;;;;2.45;2.25;;;;;;;12.15;100.00;95330.28;5009001;28;24447;-75
2022/09/16 00:09:34;;;;;;;2.75;2.40;;;;;;;12.25;100.00;95332.06;5000936;28;24994;-76
2022/09/16 00:12:00;;;;;;;8.80;2.40;;;;;;;12.32;100.00;95327.25;5009736;28;24443;-76
2022/09/16 00:14:27;;;;;;;2.15;2.03;;;;;;;12.07;100.00;95331.69;5004802;28;24449;-76
2022/09/16 00:16:54;;;;;;;2.10;1.80;;;;;;;12.00;100.00;95330.50;5008252;28;24981;-75
2022/09/16 00:19:22;;;;;;;2.38;2.13;;;;;;;11.99;100.00;95335.81;5001022;28;24456;-76
2022/09/16 00:21:49;;;;;;;6.55;2.70;;;;;;;12.02;100.00;95336.41;5007786;28;24463;-76
2022/09/16 00:24:15;;;;;;;3.50;2.60;;;;;;;11.92;100.00;95337.22;5000961;28;24434;-76
2022/09/16 00:26:42;;;;;;;6.03;3.17;;;;;;;11.87;100.00;95337.56;4999876;28;24460;-78
2022/09/16 00:29:09;;;;;;;3.60;2.60;;;;;;;11.89;100.00;95340.84;5002771;28;24795;-78
2022/09/16 00:31:35;;;;;;;2.78;2.33;;;;;;;11.88;100.00;95333.19;5005886;28;24424;-78
2022/09/16 00:34:02;;;;;;;3.75;2.13;;;;;;;11.84;100.00;95335.19;5015948;28;24440;-78
2022/09/16 00:36:30;;;;;;;2.20;2.00;;;;;;;11.82;100.00;95337.84;5004269;28;24798;-77
2022/09/16 00:38:56;;;;;;;6.32;2.40;;;;;;;11.81;100.00;95332.78;5003521;28;25027;-78
2022/09/16 00:41:25;;;;;;;2.33;1.90;;;;;;;11.81;100.00;95336.22;5002769;28;24440;-78
2022/09/16 00:43:54;;;;;;;2.65;1.92;;;;;;;11.83;100.00;95334.38;5003776;28;24429;-77
2022/09/16 00:46:28;;;;;;;2.92;2.08;;;;;;;11.88;100.00;95323.63;4999962;28;24501;-77
2022/09/16 00:48:55;;;;;;;2.55;2.20;;;;;;;11.80;100.00;95329.38;5012813;28;24439;-78
2022/09/16 00:51:24;;;;;;;2.27;2.07;;;;;;;11.80;100.00;95331.97;5015217;28;24448;-78
2022/09/16 00:53:56;;;;;;;2.97;2.20;;;;;;;11.82;100.00;95340.44;4999146;28;24448;-78
2022/09/16 00:56:25;;;;;;;3.53;2.03;;;;;;;11.84;100.00;95336.03;5006164;28;24464;-78
2022/09/16 00:59:00;;;;;;;2.90;2.10;;;;;;;11.92;100.00;95338.03;5002478;28;24433;-78
2022/09/16 01:01:27;;;;;;;2.78;2.17;;;;;;;11.98;100.00;95328.97;4998422;28;24807;-78
2022/09/16 01:03:58;;;;;;;2.50;2.30;;;;;;;12.01;100.00;95337.31;4999115;28;24429;-78
2022/09/16 01:06:27;;;;;;;2.78;2.28;;;;;;;12.05;100.00;95333.59;4994282;28;24440;-77
2022/09/16 01:08:55;;;;;;;4.60;2.58;;;;;;;12.11;100.00;95340.06;5012037;28;24985;-78
2022/09/16 01:11:22;;;;;;;2.47;2.08;;;;;;;12.15;100.00;95336.28;5006233;28;24435;-77
2022/09/16 01:13:49;;;;;;;3.42;2.03;;;;;;;12.20;100.00;95330.75;5013550;28;24443;-78
2022/09/16 01:16:25;;;;;;;5.78;2.97;;;;;;;12.28;100.00;95324.03;4999549;28;24440;-78
2022/09/16 01:18:58;;;;;;;4.43;2.42;;;;;;;12.20;100.00;95325.56;5013165;28;24947;-77
2022/09/16 01:21:37;;;;;;;3.20;2.58;;;;;;;12.06;100.00;95318.84;4999517;28;25002;-77
2022/09/16 01:24:42;;;;;;;3.90;2.70;;;;;;;12.22;100.00;95316.72;5012748;28;24982;-78
2022/09/16 01:27:39;;;;;;;3.42;2.22;;;;;;;12.33;100.00;95305.50;5000812;28;24444;-78
2022/09/16 01:30:40;;;;;;;3.55;2.58;;;;;;;12.42;100.00;95298.78;5000836;28;24437;-78
2022/09/16 01:33:15;;;;;;;4.22;2.85;;;;;;;12.03;100.00;95308.69;5013716;28;24432;-78
2022/09/16 01:35:57;;;;;;;4.32;3.22;;;;;;;11.66;100.00;95323.56;5010560;28;24436;-78
2022/09/16 01:38:36;;;;;;;6.43;3.45;;;;;;;11.30;100.00;95323.53;5002989;28;24436;-78
2022/09/16 01:41:09;;;;;;;4.35;2.85;;;;;;;11.36;100.00;95336.06;5000291;28;24823;-77
2022/09/16 01:43:50;;;;;;;4.00;2.80;;;;;;;11.47;100.00;95332.69;5016905;28;24455;-78
2022/09/16 01:46:24;;;;;;;8.30;2.80;;;;;;;11.58;100.00;95339.69;5003181;28;24465;-77
2022/09/16 01:48:58;;;;;;;3.97;2.70;;;;;;;11.83;100.00;95324.00;5014333;28;24424;-78
2022/09/16 01:51:31;;;;;;;3.92;3.05;;;;;;;11.91;100.00;95335.56;5007367;28;24440;-77
2022/09/16 01:54:05;;;;;;;5.60;3.13;;;;;;;11.81;100.00;95330.19;5003218;28;24523;-77
2022/09/16 01:56:39;;;;;;;4.63;3.05;;;;;;;11.70;100.00;95338.78;5001121;28;24433;-77
2022/09/16 01:59:10;;;;;;;6.00;2.97;;;;;;;11.70;100.00;95336.19;5003041;28;24435;-78
2022/09/16 02:01:44;;;;;;;4.10;2.67;;;;;;;11.77;100.00;95333.97;5013562;28;24547;-77
2022/09/16 02:04:15;;;;;;;3.25;2.58;;;;;;;11.92;100.00;95324.25;5011890;28;24451;-77
2022/09/16 02:06:45;;;;;;;3.33;2.60;;;;;;;11.89;100.00;95321.88;5014153;28;24439;-78
2022/09/16 02:09:16;;;;;;;3.58;2.70;;;;;;;11.69;100.00;95321.56;5018106;28;24534;-78
2022/09/16 02:11:46;;;;;;;3.05;2.85;;;;;;;11.64;100.00;95323.66;4999999;28;25009;-78
2022/09/16 02:14:17;;;;;;;5.97;3.22;;;;;;;11.51;100.00;95330.69;5017995;28;24447;-77
2022/09/16 02:16:51;;;;;;;3.65;3.10;;;;;;;11.53;100.00;95321.88;5011791;28;24459;-78
2022/09/16 02:19:22;;;;;;;3.90;3.00;;;;;;;11.63;100.00;95319.41;4999127;28;24479;-78
2022/09/16 02:21:51;;;;;;;4.30;2.73;;;;;;;11.69;100.00;95323.34;4998733;28;24549;-78
2022/09/16 02:24:20;;;;;;;4.55;2.70;;;;;;;11.82;100.00;95309.31;5000375;28;24464;-77
2022/09/16 02:26:49;;;;;;;3.00;1.92;;;;;;;11.82;100.00;95322.28;4997810;28;24967;-78
2022/09/16 02:29:20;;;;;;;4.68;2.67;;;;;;;11.62;100.00;95328.16;5018922;28;24787;-77
2022/09/16 02:31:51;;;;;;;4.03;2.20;;;;;;;11.57;100.00;95325.06;4999564;28;24432;-77
2022/09/16 02:34:21;;;;;;;3.33;2.28;;;;;;;11.54;100.00;95323.53;5011709;28;24445;-78
2022/09/16 02:36:54;;;;;;;3.45;2.17;;;;;;;11.52;100.00;95316.78;5011830;28;24429;-78
2022/09/16 02:39:27;;;;;;;2.85;2.15;;;;;;;11.51;100.00;95322.94;4997390;28;24970;-78
2022/09/16 02:41:55;;;;;;;4.72;2.50;;;;;;;11.55;100.00;95322.56;4995369;28;24449;-78
2022/09/16 02:44:23;;;;;;;3.78;2.80;;;;;;;11.52;100.00;95317.59;4997930;28;25030;-78
2022/09/16 02:47:00;;;;;;;4.00;2.63;;;;;;;11.51;100.00;95318.56;4998054;28;24440;-78
2022/09/16 02:49:32;;;;;;;5.28;3.20;;;;;;;11.37;100.00;95319.56;5005226;28;24428;-77
2022/09/16 02:52:06;;;;;;;2.85;2.55;;;;;;;11.53;100.00;95319.28;5013405;28;24432;-78
2022/09/16 02:54:38;;;;;;;3.95;2.60;;;;;;;11.64;100.00;95321.06;4999063;28;24441;-78
2022/09/16 02:57:05;;;;;;;4.78;2.42;;;;;;;11.69;100.00;95318.97;5012359;28;24439;-78
2022/09/16 02:59:32;;;;;;;3.00;2.70;;;;;;;11.64;100.00;95318.47;4997337;28;24429;-77
2022/09/16 03:02:01;;;;;;;6.23;2.50;;;;;;;11.71;100.00;95319.66;4999459;28;24449;-78
2022/09/16 03:04:29;;;;;;;2.88;2.30;;;;;;;11.73;100.00;95312.59;5008077;28;24433;-78
2022/09/16 03:06:55;;;;;;;3.15;2.72;;;;;;;11.78;100.00;95315.69;5000249;28;24795;-77
2022/09/16 03:09:23;;;;;;;3.17;2.20;;;;;;;11.78;100.00;95313.09;5000756;28;24441;-77
2022/09/16 03:12:07;;;;;;;4.00;2.55;;;;;;;11.75;100.00;95299.50;5012008;28;24432;-78
2022/09/16 03:15:08;;;;;;;4.40;2.72;;;;;;;11.70;100.00;95306.81;4982085;28;24441;-78
2022/09/16 03:17:51;;;;;;;5.32;2.45;;;;;;;11.69;100.00;95311.19;4975205;28;24444;-77
2022/09/16 03:20:26;;;;;;;3.03;2.73;;;;;;;11.77;100.00;95302.84;4999350;28;24452;-78
2022/09/16 03:23:04;;;;;;;2.45;2.25;;;;;;;11.82;100.00;95298.13;5004398;28;25017;-78
2022/09/16 03:25:44;;;;;;;2.53;2.33;;;;;;;11.89;100.00;95295.91;5011642;28;24437;-78
2022/09/16 03:28:14;;;;;;;3.50;2.45;;;;;;;11.81;100.00;95302.47;4995006;28;24444;-78
2022/09/16 03:30:53;;;;;;;3.00;2.72;;;;;;;11.77;100.00;95293.28;5020031;28;24489;-77
2022/09/16 03:33:27;;;;;;;4.25;3.00;;;;;;;11.66;100.00;95295.84;5002870;28;24428;-78
2022/09/16 03:35:58;;;;;;;3.03;2.72;;;;;;;11.59;100.00;95297.25;5008771;28;24972;-77
2022/09/16 03:38:25;;;;;;;2.50;2.30;;;;;;;11.69;100.00;95294.81;5012052;28;24990;-77
2022/09/16 03:40:52;;;;;;;3.53;2.67;;;;;;;11.69;100.00;95290.44;4996786;28;24449;-78
2022/09/16 03:43:18;;;;;;;2.50;2.30;;;;;;;11.76;100.00;95291.63;5012511;28;25009;-78
2022/09/16 03:45:45;;;;;;;2.78;2.38;;;;;;;11.76;100.00;95291.63;5017345;28;24439;-78
2022/09/16 03:48:13;;;;;;;3.78;2.55;;;;;;;11.82;100.00;95287.72;5006654;28;24433;-78
2022/09/16 03:50:40;;;;;;;2.47;2.28;;;;;;;11.89;100.00;95288.97;5010111;28;24463;-78
2022/09/16 03:53:07;;;;;;;3.70;2.40;;;;;;;11.96;100.00;95284.13;5005685;28;24428;-78
2022/09/16 03:55:34;;;;;;;3.00;2.20;;;;;;;11.96;100.00;95287.56;5004384;28;24512;-78
2022/09/16 03:58:00;;;;;;;3.22;2.30;;;;;;;11.99;100.00;95284.72;5004216;28;24432;-77
2022/09/16 04:00:28;;;;;;;4.38;2.67;;;;;;;12.00;100.00;95285.56;5017302;28;24449;-77
2022/09/16 04:02:55;;;;;;;5.90;2.70;;;;;;;12.18;100.00;95289.34;4998385;28;24440;-78
2022/09/16 04:05:21;;;;;;;3.53;2.65;;;;;;;12.32;100.00;95278.72;5000020;28;24433;-77
2022/09/16 04:07:50;;;;;;;4.40;3.15;;;;;;;12.66;100.00;95283.88;5000391;28;24433;-78
2022/09/16 04:10:17;;;;;;;3.53;3.15;;;;;;;12.71;100.00;95284.31;5014263;28;24437;-78
2022/09/16 04:12:43;;;;;;;3.78;2.85;;;;;;;12.17;100.00;95264.34;5000362;28;24803;-77
2022/09/16 04:15:10;;;;;;;4.68;2.85;;;;;;;11.98;100.00;95275.31;5014530;28;24433;-77
2022/09/16 04:17:37;;;;;;;5.22;2.70;;;;;;;11.82;100.00;95266.97;5000134;28;24436;-77
2022/09/16 04:20:06;;;;;;;3.35;2.78;;;;;;;11.61;100.00;95261.66;5014377;28;24439;-78
2022/09/16 04:22:32;;;;;;;2.90;2.70;;;;;;;11.40;100.00;95269.25;5001547;28;24447;-78
2022/09/16 04:25:00;;;;;;;3.67;3.00;;;;;;;11.28;100.00;95281.38;5004345;28;24896;-78
2022/09/16 04:27:27;;;;;;;3.10;2.80;;;;;;;11.43;100.00;95276.81;5011495;28;24436;-78
2022/09/16 04:29:53;;;;;;;3.88;2.63;;;;;;;11.52;100.00;95265.75;5004076;28;24433;-78
2022/09/16 04:32:20;;;;;;;3.88;3.03;;;;;;;11.58;100.00;95260.09;4995755;28;24421;-78
2022/09/16 04:34:46;;;;;;;5.55;3.40;;;;;;;11.80;100.00;95251.53;5001210;28;24503;-78
2022/09/16 04:37:13;;;;;;;4.65;3.33;;;;;;;11.98;100.00;95243.34;5012502;28;24810;-78
2022/09/16 04:39:40;;;;;;;9.07;3.53;;;;;;;11.93;100.00;95250.63;5003664;28;24459;-78
2022/09/16 04:42:11;;;;;;;4.78;3.60;;;;;;;11.91;100.00;95249.94;5004208;28;24452;-78
2022/09/16 04:44:38;;;;;;;4.05;3.10;;;;;;;11.90;100.00;95254.28;5013075;28;24527;-77
2022/09/16 04:47:04;;;;;;;3.90;3.22;;;;;;;11.76;100.00;95247.53;5004666;28;24440;-78
2022/09/16 04:49:31;;;;;;;4.87;3.00;;;;;;;11.72;100.00;95248.72;5004473;28;24492;-78
2022/09/16 04:51:58;;;;;;;5.38;3.50;;;;;;;11.49;100.00;95252.19;4994780;28;24440;-78
2022/09/16 04:54:24;;;;;;;5.35;3.25;;;;;;;11.35;100.00;95256.63;5004799;28;24487;-78
2022/09/16 04:56:51;;;;;;;4.85;3.13;;;;;;;11.30;100.00;95266.50;5001366;28;24988;-78
2022/09/16 04:59:19;;;;;;;6.15;3.38;;;;;;;11.34;100.00;95275.69;4995496;28;25012;-78
2022/09/16 05:01:45;;;;;;;3.70;3.15;;;;;;;11.42;100.00;95264.81;5003143;28;24452;-76
2022/09/16 05:04:12;;;;;;;3.72;3.22;;;;;;;11.39;100.00;95273.63;5003558;28;25093;-76
2022/09/16 05:06:40;;;;;;;8.15;4.15;;;;;;;11.49;100.00;95267.75;4995386;28;25008;-76
2022/09/16 05:09:08;;;;;;;3.80;3.35;;;;;;;11.74;100.00;95261.56;4994344;28;24437;-77
2022/09/16 05:11:37;;;;;;;3.80;3.07;;;;;;;12.09;100.00;95264.09;5003666;28;24424;-77
2022/09/16 05:14:06;;;;;;;3.30;3.00;;;;;;;12.06;100.00;95266.94;5003324;28;24537;-76
2022/09/16 05:16:34;;;;;;;5.13;3.50;;;;;;;12.05;100.00;95276.50;5003481;28;24449;-76
2022/09/16 05:19:03;;;;;;;5.70;3.60;;;;;;;11.85;100.00;95279.75;5003932;28;24543;-77
2022/09/16 05:21:31;;;;;;;3.90;3.22;;;;;;;11.76;100.00;95276.06;5011906;28;24532;-77
2022/09/16 05:24:01;;;;;;;5.28;3.38;;;;;;;11.80;100.00;95269.69;5016100;28;25000;-76
2022/09/16 05:26:30;;;;;;;4.40;3.65;;;;;;;11.69;100.00;95272.28;5004525;28;24469;-77
2022/09/16 05:29:00;;;;;;;3.92;3.08;;;;;;;11.91;100.00;95268.91;5003069;28;24439;-76
2022/09/16 05:31:29;;;;;;;3.28;2.95;;;;;;;12.00;100.00;95267.38;5008566;28;24440;-76
2022/09/16 05:33:58;;;;;;;5.15;3.17;;;;;;;11.99;100.00;95266.56;5021978;28;24436;-77
2022/09/16 05:36:26;;;;;;;4.83;3.07;;;;;;;12.13;100.00;95275.91;4998917;28;24444;-77
2022/09/16 05:38:53;;;;;;;3.88;2.97;;;;;;;11.96;100.00;95273.75;5007831;28;24799;-77
2022/09/16 05:41:19;;;;;;;5.57;3.35;;;;;;;11.86;100.00;95277.06;5007888;28;24479;-77
2022/09/16 05:43:46;;;;;;;4.93;3.15;;;;;;;11.57;100.00;95281.81;4997945;28;24432;-77
2022/09/16 05:46:19;;;;;;;5.63;3.10;;;;;;;11.62;100.00;95271.91;4995835;28;24441;-77
2022/09/16 05:48:46;;;;;;;5.13;2.97;;;;;;;11.53;100.00;95282.97;4995676;28;24440;-77
2022/09/16 05:51:16;;;;;;;4.55;3.03;;;;;;;11.50;100.00;95279.78;5000421;28;24990;-76
2022/09/16 05:53:43;;;;;;;4.80;3.17;;;;;;;11.63;100.00;95278.75;5008223;28;24444;-77
2022/09/16 05:56:11;;;;;;;5.43;3.40;;;;;;;11.73;100.00;95278.88;5000409;28;24505;-77
2022/09/16 05:58:38;;;;;;;4.78;2.83;;;;;;;11.63;100.00;95278.75;4997918;28;24443;-77
2022/09/16 06:01:07;;;;;;;4.10;2.75;;;;;;;11.73;100.00;95275.47;4996131;28;24994;-77
2022/09/16 06:03:34;;;;;;;11.68;3.45;;;;;;;11.85;100.00;95279.75;4993993;28;24440;-77
2022/09/16 06:06:01;;;;;;;3.75;2.70;;;;;;;11.96;100.00;95279.78;5001941;28;24440;-77
2022/09/16 06:08:31;;;;;;;4.47;2.80;;;;;;;12.00;100.00;95282.97;4999368;28;24437;-77
2022/09/16 06:11:00;;;;;;;5.27;2.83;;;;;;;11.88;100.00;95289.91;5007886;28;24481;-77
2022/09/16 06:13:27;;;;;;;5.07;2.72;;;;;;;11.81;100.00;95294.69;4996452;28;24429;-77
2022/09/16 06:15:54;;;;;;;5.85;2.78;;;;;;;11.69;100.00;95293.03;5000669;28;24445;-79
2022/09/16 06:18:21;;;;;;;3.65;2.70;;;;;;;11.77;100.00;95292.44;5007226;28;24783;-78
2022/09/16 06:20:48;;;;;;;4.63;2.40;;;;;;;11.84;100.00;95301.47;4992531;28;25221;-79
2022/09/16 06:23:15;;;;;;;6.63;3.05;;;;;;;11.72;100.00;95303.19;5021115;28;24440;-79
2022/09/16 06:25:45;;;;;;;4.30;2.35;;;;;;;11.74;100.00;95293.50;5002857;28;21328;-79
2022/09/16 06:28:12;;;;;;;4.47;2.88;;;;;;;11.94;100.00;95284.25;4996870;28;24437;-78
2022/09/16 06:30:38;;;;;;;4.55;2.83;;;;;;;11.99;100.00;95287.31;5001747;28;24436;-78
2022/09/16 06:33:05;;;;;;;8.57;3.35;;;;;;;12.06;100.00;95279.91;5002317;28;24448;-79
2022/09/16 06:35:34;;;;;;;4.88;2.70;;;;;;;12.00;100.00;95288.16;5019140;28;24532;-79
2022/09/16 06:38:01;;;;;;;7.30;2.75;;;;;;;11.88;100.00;95289.91;4996407;28;25001;-78
2022/09/16 06:40:28;;;;;;;3.75;2.80;;;;;;;11.84;100.00;95284.13;5011645;28;24439;-79
2022/09/16 06:42:55;;;;;;;3.95;2.60;;;;;;;11.98;100.00;95283.09;5012722;28;25012;-78
2022/09/16 06:45:22;;;;;;;4.77;3.40;;;;;;;12.01;100.00;95294.97;5007052;28;24440;-79
2022/09/16 06:47:48;;;;;;;7.35;3.08;;;;;;;11.82;100.00;95296.34;4997890;28;25017;-78
2022/09/16 06:50:15;;;;;;;9.70;3.65;;;;;;;11.76;100.00;95296.81;5002270;28;24854;-78
2022/09/16 06:52:41;;;;;;;5.72;3.15;;;;;;;11.76;100.00;95301.19;5003501;28;24440;-79
2022/09/16 06:55:08;;;;;;;6.38;3.30;;;;;;;11.68;100.00;95298.31;5002451;28;24440;-80
2022/09/16 06:57:35;;;;;;;4.63;3.30;;;;;;;11.96;100.00;95294.50;5006474;28;24534;-80
2022/09/16 07:00:04;;;;;;;5.28;3.28;;;;;;;11.82;100.00;95291.16;4993182;28;24444;-78
2022/09/16 07:02:30;;;;;;;7.80;3.03;;;;;;;11.73;100.00;95297.03;5000921;28;24481;-78
2022/09/16 07:04:57;;;;;;;8.90;3.67;;;;;;;11.95;100.00;95291.09;5002550;28;24515;-79
2022/09/16 07:07:23;;;;;;;6.05;3.47;;;;;;;11.84;100.00;95291.91;5002035;28;24444;-80
2022/09/16 07:09:50;;;;;;;5.45;3.28;;;;;;;11.64;100.00;95300.31;5003899;28;24978;-79
2022/09/16 07:12:17;;;;;;;6.30;3.20;;;;;;;11.66;100.00;95302.81;5002836;28;24433;-79
2022/09/16 07:14:43;;;;;;;8.63;3.30;;;;;;;11.78;100.00;95296.69;5010054;28;24447;-80
2022/09/16 07:17:11;;;;;;;4.75;2.95;;;;;;;11.78;100.00;95294.91;5008567;28;24441;-80
2022/09/16 07:19:37;;;;;;;4.93;3.00;;;;;;;11.74;100.00;95298.69;5008615;28;25068;-80
2022/09/16 07:22:04;;;;;;;4.30;3.17;;;;;;;11.55;100.00;95295.81;5006960;28;24452;-79
2022/09/16 07:24:30;;;;;;;7.20;3.38;;;;;;;11.54;100.00;95297.59;5008593;28;24444;-80
2022/09/16 07:26:57;;;;;;;4.00;3.10;;;;;;;11.58;100.00;95300.78;5007646;28;24862;-80
2022/09/16 07:29:24;;;;;;;5.47;3.15;;;;;;;11.50;100.00;95303.13;5001788;28;24445;-80
2022/09/16 07:31:50;;;;;;;6.75;3.45;;;;;;;11.42;100.00;95318.41;5007089;28;24795;-79
2022/09/16 07:34:18;;;;;;;5.80;3.40;;;;;;;11.25;100.00;95317.06;5006322;28;24444;-79
2022/09/16 07:36:47;;;;;;;4.38;2.97;;;;;;;11.33;100.00;95314.72;5011723;28;25054;-80
2022/09/16 07:39:16;;;;;;;5.85;3.03;;;;;;;11.41;100.00;95317.56;5012492;28;26015;-80
2022/09/16 07:41:44;;;;;;;5.30;2.55;;;;;;;11.33;100.00;95315.53;5010190;28;24456;-79
2022/09/16 07:44:13;;;;;;;2.88;2.55;;;;;;;11.46;100.00;95305.13;5004424;28;24460;-79
2022/09/16 07:46:40;;;;;;;4.20;3.17;;;;;;;11.47;100.00;95319.72;5003812;28;24433;-76
2022/09/16 07:49:09;;;;;;;4.63;2.83;;;;;;;11.53;100.00;95326.22;5008664;28;24520;-79
2022/09/16 07:51:37;;;;;;;5.75;3.10;;;;;;;11.52;100.00;95327.16;5024738;28;24424;-79
2022/09/16 07:54:06;;;;;;;3.27;2.93;;;;;;;11.55;100.00;95334.72;5005958;28;25010;-80
2022/09/16 07:56:35;;;;;;;5.75;2.80;;;;;;;11.31;100.00;95329.53;5017075;28;24432;-79
2022/09/16 07:59:04;;;;;;;4.22;2.40;;;;;;;11.41;100.00;95332.31;5019140;28;24433;-79
2022/09/16 08:01:31;;;;;;;3.88;2.65;;;;;;;11.30;100.00;95322.72;5004997;28;24436;-79
2022/09/16 08:03:59;;;;;;;10.00;2.50;;;;;;;11.46;100.00;95315.50;5019039;28;24429;-79
2022/09/16 08:06:27;;;;;;;3.45;2.08;;;;;;;11.69;100.00;95315.56;5028213;28;24424;-80
2022/09/16 08:08:58;;;;;;;3.95;2.08;;;;;;;11.88;100.00;95312.44;5014069;28;24433;-79
2022/09/16 08:11:25;;;;;;;3.30;2.40;;;;;;;12.01;100.00;95326.13;5013473;28;24436;-80
2022/09/16 08:13:52;;;;;;;2.67;2.30;;;;;;;12.03;100.00;95335.47;5007463;28;24479;-79
2022/09/16 08:16:20;;;;;;;3.87;2.17;;;;;;;12.03;100.00;95335.47;5019184;28;24526;-80
2022/09/16 08:18:49;;;;;;;2.13;1.90;;;;;;;12.05;100.00;95332.75;5016635;28;24432;-80
2022/09/16 08:21:18;;;;;;;5.30;2.20;;;;;;;12.01;100.00;95341.69;5018651;28;24437;-79
2022/09/16 08:23:45;;;;;;;2.87;2.00;;;;;;;11.66;100.00;95341.72;5009466;28;24456;-79
2022/09/16 08:26:14;;;;;;;6.73;2.00;;;;;;;11.71;100.00;95347.38;5005139;28;24440;-80
2022/09/16 08:28:42;;;;;;;3.35;1.88;;;;;;;11.56;100.00;95342.38;4995955;28;24792;-79
2022/09/16 08:31:09;;;;;;;6.63;1.85;;;;;;;11.69;100.00;95342.31;5008595;28;24424;-80
2022/09/16 08:33:39;;;;;;;3.35;2.10;;;;;;;11.74;100.00;95350.56;5008030;28;24884;-79
2022/09/16 08:36:07;;;;;;;3.90;2.30;;;;;;;11.71;100.00;95349.97;5001949;28;24429;-79
2022/09/16 08:38:34;;;;;;;3.97;2.10;;;;;;;11.74;100.00;95352.34;5008772;28;24433;-79
2022/09/16 08:41:08;;;;;;;3.40;1.92;;;;;;;11.75;100.00;95361.78;4997072;28;24437;-80
2022/09/16 08:43:41;;;;;;;3.45;2.08;;;;;;;11.79;100.00;95358.00;5003302;28;24448;-80
2022/09/16 08:46:17;;;;;;;2.80;2.07;;;;;;;11.94;100.00;95354.34;5002713;28;24518;-79
2022/09/16 08:48:52;;;;;;;3.42;2.00;;;;;;;11.77;100.00;95365.91;5010053;28;24424;-80
2022/09/16 08:51:20;;;;;;;3.42;1.95;;;;;;;11.75;100.00;95360.00;4995965;28;24436;-79
2022/09/16 08:53:51;;;;;;;4.40;1.70;;;;;;;11.88;100.00;95372.13;4999734;28;24448;-80
2022/09/16 08:56:22;;;;;;;5.18;2.42;;;;;;;11.96;100.00;95369.78;5028666;28;24444;-79
2022/09/16 08:58:53;;;;;;;3.00;2.00;;;;;;;11.99;100.00;95365.19;5009468;28;24443;-79
2022/09/16 09:01:27;;;;;;;5.82;1.88;;;;;;;11.84;100.00;95358.53;5017098;28;24523;-79
2022/09/16 09:03:53;;;;;;;5.05;1.90;;;;;;;11.89;100.00;95363.38;5026305;28;24452;-79
2022/09/16 09:06:34;;;;;;;3.55;1.85;;;;;;;11.81;100.00;95369.94;5018412;28;24428;-79
2022/09/16 09:09:14;;;;;;;2.83;1.67;;;;;;;11.88;100.00;95369.53;5009020;28;24440;-78
2022/09/16 09:11:50;;;;;;;3.00;1.85;;;;;;;12.06;100.00;95370.75;5003663;28;25017;-78
2022/09/16 09:14:36;;;;;;;2.70;1.70;;;;;;;12.11;100.00;95371.22;5003542;28;25027;-77
2022/09/16 09:17:07;;;;;;;2.65;1.70;;;;;;;12.09;100.00;95366.16;4994742;28;24440;-78
2022/09/16 09:19:46;;;;;;;3.40;1.40;;;;;;;11.98;100.00;95370.50;4999826;28;24431;-78
2022/09/16 09:22:25;;;;;;;3.58;1.60;;;;;;;11.72;100.00;95362.03;5018932;28;24466;-78
2022/09/16 09:25:03;;;;;;;4.25;1.55;;;;;;;11.69;100.00;95368.25;5012590;28;24481;-78
2022/09/16 09:27:36;;;;;;;3.40;1.30;;;;;;;11.80;100.00;95357.09;4998407;28;24498;-77
2022/09/16 09:30:12;;;;;;;11.52;2.20;;;;;;;11.90;100.00;95349.47;5002345;28;24482;-77
2022/09/16 09:32:55;;;;;;;2.70;1.60;;;;;;;11.78;100.00;95344.22;5021290;28;24977;-77
2022/09/16 09:35:36;;;;;;;4.28;1.50;;;;;;;11.75;100.00;95347.03;5001598;28;24997;-78
2022/09/16 09:38:20;;;;;;;3.33;1.20;;;;;;;11.70;100.00;95353.50;5002888;28;24989;-77
2022/09/16 09:40:52;;;;;;;2.97;1.50;;;;;;;11.69;100.00;95357.06;5014894;28;24463;-77
2022/09/16 09:43:22;;;;;;;3.95;1.80;;;;;;;11.69;100.00;95355.28;4996249;28;24455;-78
2022/09/16 09:45:57;;;;;;;2.75;1.83;;;;;;;11.66;100.00;95360.69;5003340;28;24444;-78
2022/09/16 09:48:30;;;;;;;3.53;1.60;;;;;;;11.63;100.00;95361.75;5001753;28;24444;-77
2022/09/16 09:51:01;;;;;;;8.30;1.70;;;;;;;11.73;100.00;95363.66;5003770;28;24494;-77
2022/09/16 09:53:33;;;;;;;2.42;1.48;;;;;;;11.79;100.00;95369.25;5002399;28;24887;-77
2022/09/16 09:56:08;;;;;;;3.47;1.92;;;;;;;11.76;100.00;95373.81;5003153;28;24989;-78
2022/09/16 09:58:39;;;;;;;3.63;1.88;;;;;;;11.75;100.00;95374.75;5003582;28;24953;-78
2022/09/16 10:01:06;;;;;;;2.72;1.80;;;;;;;11.76;100.00;95366.03;5003060;28;24441;-77
2022/09/16 10:03:33;;;;;;;3.83;1.83;;;;;;;11.80;100.00;95370.06;5000636;28;24827;-77
2022/09/16 10:06:00;;;;;;;4.07;2.00;;;;;;;11.92;100.00;95369.19;5001028;28;24494;-78
2022/09/16 10:08:29;;;;;;;2.88;1.42;;;;;;;12.02;100.00;95364.97;5003077;28;24443;-78
2022/09/16 10:10:58;;;;;;;2.70;1.30;;;;;;;11.88;100.00;95361.75;5002084;28;24436;-77
2022/09/16 10:13:28;;;;;;;2.10;1.30;;;;;;;12.11;100.00;95360.84;5002613;28;24436;-77
2022/09/16 10:16:09;;;;;;;4.05;2.00;;;;;;;12.30;100.00;95378.44;4999826;28;24484;-77
2022/09/16 10:18:36;;;;;;;4.03;1.92;;;;;;;12.32;100.00;95373.97;5007805;28;24428;-78
2022/09/16 10:21:06;;;;;;;5.50;1.90;;;;;;;12.22;100.00;95370.41;5002523;28;24443;-77
2022/09/16 10:23:35;;;;;;;3.78;1.90;;;;;;;12.25;100.00;95372.78;5013305;28;24511;-77
2022/09/16 10:26:24;;;;;;;3.83;1.93;;;;;;;12.38;100.00;95370.06;5002217;28;24981;-77
2022/09/16 10:28:55;;;;;;;4.05;1.60;;;;;;;12.31;100.00;95369.69;5002290;28;24431;-77
2022/09/16 10:31:25;;;;;;;4.15;1.77;;;;;;;12.57;100.00;95365.97;5005134;28;24436;-77
2022/09/16 10:33:52;;;;;;;2.60;1.50;;;;;;;12.75;100.00;95368.88;5003170;28;24799;-77
2022/09/16 10:36:21;;;;;;;3.85;1.48;;;;;;;12.69;100.00;95369.38;5000952;28;24997;-78
2022/09/16 10:38:52;;;;;;;4.17;1.40;;;;;;;12.44;100.00;95369.63;5008293;28;24512;-79
2022/09/16 10:41:24;;;;;;;2.55;1.23;;;;;;;12.34;100.00;95377.25;5007895;28;24511;-80
2022/09/16 10:43:53;;;;;;;8.07;1.48;;;;;;;12.34;100.00;95379.88;5000052;28;24444;-79
2022/09/16 10:46:20;;;;;;;6.78;1.63;;;;;;;12.27;100.00;95374.34;4995116;28;24440;-80
2022/09/16 10:48:50;;;;;;;3.10;1.40;;;;;;;12.13;100.00;95379.72;5003507;28;24439;-79
2022/09/16 10:51:23;;;;;;;5.70;1.60;;;;;;;12.08;100.00;95382.66;5000310;28;24818;-80
2022/09/16 10:53:53;;;;;;;3.63;1.10;;;;;;;11.89;100.00;95390.16;4992031;28;24424;-78
2022/09/16 10:56:23;;;;;;;3.80;1.48;;;;;;;11.86;100.00;95382.59;4995484;28;24482;-80
2022/09/16 10:59:00;;;;;;;4.55;1.52;;;;;;;11.77;100.00;95384.09;5005395;28;24479;-78
2022/09/16 11:01:37;;;;;;;3.72;1.27;;;;;;;11.75;100.00;95393.72;4996906;28;24439;-79
2022/09/16 11:04:31;;;;;;;5.05;1.30;;;;;;;11.63;100.00;95389.44;5025733;28;24486;-78
2022/09/16 11:07:11;;;;;;;4.97;1.70;;;;;;;11.61;100.00;95393.94;5032257;28;24486;-78
2022/09/16 11:09:46;;;;;;;8.05;1.70;;;;;;;11.62;100.00;95388.63;5007713;28;24432;-79
2022/09/16 11:12:44;;;;;;;2.90;1.45;;;;;;;11.70;100.00;95384.66;5004688;28;24439;-78
2022/09/16 11:15:24;;;;;;;3.20;1.42;;;;;;;11.82;100.00;95383.72;5004580;28;25001;-79
2022/09/16 11:18:07;;;;;;;1.80;1.15;;;;;;;11.80;100.00;95381.25;5004012;28;25012;-78
2022/09/16 11:21:08;;;;;;;3.65;1.40;;;;;;;12.04;100.00;95390.78;5003991;28;24977;-79
2022/09/16 11:23:48;;;;;;;5.72;1.63;;;;;;;12.08;100.00;95377.47;4999099;28;24453;-78
2022/09/16 11:26:23;;;;;;;5.07;1.38;;;;;;;12.24;100.00;95382.34;5005952;28;24444;-78
2022/09/16 11:29:03;;;;;;;5.60;1.55;;;;;;;12.30;100.00;95383.63;5007552;28;24465;-79
2022/09/16 11:31:40;;;;;;;5.63;1.63;;;;;;;12.43;100.00;95378.34;4997618;28;24425;-79
2022/09/16 11:34:16;;;;;;;4.20;1.52;;;;;;;12.40;100.00;95392.41;5008941;28;24432;-78
2022/09/16 11:36:55;;;;;;;8.23;1.70;;;;;;;12.44;100.00;95387.78;5001968;28;24807;-80
2022/09/16 11:39:40;;;;;;;4.80;1.45;;;;;;;12.58;100.00;95388.38;5002706;28;24951;-79
2022/09/16 11:42:16;;;;;;;3.40;1.50;;;;;;;12.48;100.00;95386.63;4992065;28;24429;-79